sensor_id;sensor_type;location;lat;lon;timestamp;P1;durP1;ratioP1;P2;durP2;ratioP2
23266;SDS011;11802;53.160;8.214;2023-11-19T00:01:39;29.70;;;19.70;;
23266;SDS011;11802;53.160;8.214;2023-11-19T00:04:05;29.33;;;19.73;;
23266;SDS011;11802;53.160;8.214;2023-11-19T00:06:31;28.70;;;18.97;;
23266;SDS011;11802;53.160;8.214;2023-11-19T00:08:56;34.63;;;20.50;;
23266;SDS011;11802;53.160;8.214;2023-11-19T00:11:22;30.27;;;19.77;;
23266;SDS011;11802;53.160;8.214;2023-11-19T00:13:47;32.17;;;20.70;;
23266;SDS011;11802;53.160;8.214;2023-11-19T00:16:13;31.27;;;20.53;;
23266;SDS011;11802;53.160;8.214;2023-11-19T00:18:38;30.67;;;19.97;;
23266;SDS011;11802;53.160;8.214;2023-11-19T00:21:06;31.33;;;18.57;;
23266;SDS011;11802;53.160;8.214;2023-11-19T00:23:33;32.37;;;19.23;;
23266;SDS011;11802;53.160;8.214;2023-11-19T00:25:58;31.57;;;20.20;;
23266;SDS011;11802;53.160;8.214;2023-11-19T00:28:24;28.13;;;18.43;;
23266;SDS011;11802;53.160;8.214;2023-11-19T00:30:49;30.07;;;19.03;;
23266;SDS011;11802;53.160;8.214;2023-11-19T00:33:15;33.63;;;20.90;;
23266;SDS011;11802;53.160;8.214;2023-11-19T00:35:40;35.77;;;22.23;;
23266;SDS011;11802;53.160;8.214;2023-11-19T00:38:06;34.50;;;21.03;;
23266;SDS011;11802;53.160;8.214;2023-11-19T00:40:32;29.90;;;19.50;;
23266;SDS011;11802;53.160;8.214;2023-11-19T00:42:58;29.73;;;19.33;;
23266;SDS011;11802;53.160;8.214;2023-11-19T00:45:24;29.47;;;18.43;;
23266;SDS011;11802;53.160;8.214;2023-11-19T00:47:50;29.37;;;18.67;;
23266;SDS011;11802;53.160;8.214;2023-11-19T00:50:15;32.00;;;21.13;;
23266;SDS011;11802;53.160;8.214;2023-11-19T00:52:42;33.97;;;20.27;;
23266;SDS011;11802;53.160;8.214;2023-11-19T00:55:08;34.37;;;20.13;;
23266;SDS011;11802;53.160;8.214;2023-11-19T00:57:35;36.23;;;21.33;;
23266;SDS011;11802;53.160;8.214;2023-11-19T01:00:00;33.77;;;19.37;;
23266;SDS011;11802;53.160;8.214;2023-11-19T01:02:26;42.70;;;22.40;;
23266;SDS011;11802;53.160;8.214;2023-11-19T01:04:51;36.53;;;21.90;;
23266;SDS011;11802;53.160;8.214;2023-11-19T01:07:17;32.87;;;20.10;;
23266;SDS011;11802;53.160;8.214;2023-11-19T01:09:43;36.30;;;21.13;;
23266;SDS011;11802;53.160;8.214;2023-11-19T01:12:08;30.63;;;19.03;;
23266;SDS011;11802;53.160;8.214;2023-11-19T01:14:35;32.67;;;18.17;;
23266;SDS011;11802;53.160;8.214;2023-11-19T01:17:01;29.87;;;17.53;;
23266;SDS011;11802;53.160;8.214;2023-11-19T01:19:27;27.90;;;16.57;;
23266;SDS011;11802;53.160;8.214;2023-11-19T01:21:53;23.37;;;14.53;;
23266;SDS011;11802;53.160;8.214;2023-11-19T01:24:20;25.57;;;14.90;;
23266;SDS011;11802;53.160;8.214;2023-11-19T01:26:46;25.13;;;14.73;;
23266;SDS011;11802;53.160;8.214;2023-11-19T01:29:12;24.10;;;14.80;;
23266;SDS011;11802;53.160;8.214;2023-11-19T01:31:41;29.20;;;16.97;;
23266;SDS011;11802;53.160;8.214;2023-11-19T01:34:07;29.47;;;16.43;;
23266;SDS011;11802;53.160;8.214;2023-11-19T01:36:33;29.77;;;17.40;;
23266;SDS011;11802;53.160;8.214;2023-11-19T01:38:58;31.60;;;19.13;;
23266;SDS011;11802;53.160;8.214;2023-11-19T01:41:24;26.27;;;16.40;;
23266;SDS011;11802;53.160;8.214;2023-11-19T01:43:50;30.47;;;18.53;;
23266;SDS011;11802;53.160;8.214;2023-11-19T01:46:15;35.03;;;18.47;;
23266;SDS011;11802;53.160;8.214;2023-11-19T01:48:42;33.37;;;18.70;;
23266;SDS011;11802;53.160;8.214;2023-11-19T01:51:09;32.17;;;19.13;;
23266;SDS011;11802;53.160;8.214;2023-11-19T01:53:36;29.87;;;17.87;;
23266;SDS011;11802;53.160;8.214;2023-11-19T01:56:04;30.37;;;18.80;;
23266;SDS011;11802;53.160;8.214;2023-11-19T01:58:33;31.60;;;18.30;;
23266;SDS011;11802;53.160;8.214;2023-11-19T02:01:00;30.10;;;18.33;;
23266;SDS011;11802;53.160;8.214;2023-11-19T02:03:28;35.53;;;18.50;;
23266;SDS011;11802;53.160;8.214;2023-11-19T02:05:56;31.27;;;17.77;;
23266;SDS011;11802;53.160;8.214;2023-11-19T02:08:22;31.13;;;17.97;;
23266;SDS011;11802;53.160;8.214;2023-11-19T02:10:48;28.57;;;15.93;;
23266;SDS011;11802;53.160;8.214;2023-11-19T02:13:13;30.70;;;18.33;;
23266;SDS011;11802;53.160;8.214;2023-11-19T02:15:41;33.20;;;19.00;;
23266;SDS011;11802;53.160;8.214;2023-11-19T02:18:19;31.03;;;17.67;;
23266;SDS011;11802;53.160;8.214;2023-11-19T02:20:46;35.93;;;18.93;;
23266;SDS011;11802;53.160;8.214;2023-11-19T02:23:13;33.53;;;18.00;;
23266;SDS011;11802;53.160;8.214;2023-11-19T02:25:38;32.17;;;17.47;;
23266;SDS011;11802;53.160;8.214;2023-11-19T02:28:05;35.50;;;20.00;;
23266;SDS011;11802;53.160;8.214;2023-11-19T02:30:32;31.70;;;17.37;;
23266;SDS011;11802;53.160;8.214;2023-11-19T02:32:58;38.17;;;19.57;;
23266;SDS011;11802;53.160;8.214;2023-11-19T02:35:27;30.97;;;18.77;;
23266;SDS011;11802;53.160;8.214;2023-11-19T02:37:54;36.60;;;20.53;;
23266;SDS011;11802;53.160;8.214;2023-11-19T02:40:19;35.30;;;20.17;;
23266;SDS011;11802;53.160;8.214;2023-11-19T02:42:47;36.17;;;19.37;;
23266;SDS011;11802;53.160;8.214;2023-11-19T02:45:13;41.97;;;20.17;;
23266;SDS011;11802;53.160;8.214;2023-11-19T02:47:43;37.27;;;20.30;;
23266;SDS011;11802;53.160;8.214;2023-11-19T02:50:09;38.03;;;19.90;;
23266;SDS011;11802;53.160;8.214;2023-11-19T02:52:43;37.23;;;19.03;;
23266;SDS011;11802;53.160;8.214;2023-11-19T02:55:12;34.70;;;20.10;;
23266;SDS011;11802;53.160;8.214;2023-11-19T02:57:38;38.60;;;20.77;;
23266;SDS011;11802;53.160;8.214;2023-11-19T03:00:11;41.53;;;20.50;;
23266;SDS011;11802;53.160;8.214;2023-11-19T03:02:39;39.13;;;20.17;;
23266;SDS011;11802;53.160;8.214;2023-11-19T03:05:20;45.90;;;20.20;;
23266;SDS011;11802;53.160;8.214;2023-11-19T03:07:45;31.60;;;18.27;;
23266;SDS011;11802;53.160;8.214;2023-11-19T03:10:12;28.37;;;16.50;;
23266;SDS011;11802;53.160;8.214;2023-11-19T03:12:41;33.67;;;19.63;;
23266;SDS011;11802;53.160;8.214;2023-11-19T03:15:07;32.53;;;17.97;;
23266;SDS011;11802;53.160;8.214;2023-11-19T03:17:39;37.33;;;20.53;;
23266;SDS011;11802;53.160;8.214;2023-11-19T03:20:06;34.67;;;19.10;;
23266;SDS011;11802;53.160;8.214;2023-11-19T03:22:39;31.50;;;16.53;;
23266;SDS011;11802;53.160;8.214;2023-11-19T03:25:09;26.27;;;14.67;;
23266;SDS011;11802;53.160;8.214;2023-11-19T03:27:38;33.23;;;18.10;;
23266;SDS011;11802;53.160;8.214;2023-11-19T03:30:08;32.37;;;17.00;;
23266;SDS011;11802;53.160;8.214;2023-11-19T03:32:36;34.80;;;16.63;;
23266;SDS011;11802;53.160;8.214;2023-11-19T03:35:03;31.43;;;16.13;;
23266;SDS011;11802;53.160;8.214;2023-11-19T03:37:32;34.27;;;17.40;;
23266;SDS011;11802;53.160;8.214;2023-11-19T03:39:57;39.47;;;16.97;;
23266;SDS011;11802;53.160;8.214;2023-11-19T03:42:25;37.67;;;17.20;;
23266;SDS011;11802;53.160;8.214;2023-11-19T03:44:52;33.07;;;17.13;;
23266;SDS011;11802;53.160;8.214;2023-11-19T03:47:18;36.40;;;16.90;;
23266;SDS011;11802;53.160;8.214;2023-11-19T03:49:47;33.53;;;17.10;;
23266;SDS011;11802;53.160;8.214;2023-11-19T03:52:16;40.00;;;16.03;;
23266;SDS011;11802;53.160;8.214;2023-11-19T03:54:42;29.37;;;12.77;;
23266;SDS011;11802;53.160;8.214;2023-11-19T03:57:08;38.13;;;15.13;;
23266;SDS011;11802;53.160;8.214;2023-11-19T03:59:35;39.23;;;15.47;;
23266;SDS011;11802;53.160;8.214;2023-11-19T04:02:01;36.07;;;13.77;;
23266;SDS011;11802;53.160;8.214;2023-11-19T04:04:27;37.80;;;15.90;;
23266;SDS011;11802;53.160;8.214;2023-11-19T04:06:54;39.47;;;14.60;;
23266;SDS011;11802;53.160;8.214;2023-11-19T04:09:20;34.30;;;13.83;;
23266;SDS011;11802;53.160;8.214;2023-11-19T04:11:46;32.73;;;12.70;;
23266;SDS011;11802;53.160;8.214;2023-11-19T04:14:12;42.40;;;13.93;;
23266;SDS011;11802;53.160;8.214;2023-11-19T04:16:38;30.33;;;11.97;;
23266;SDS011;11802;53.160;8.214;2023-11-19T04:19:04;32.03;;;13.13;;
23266;SDS011;11802;53.160;8.214;2023-11-19T04:21:30;24.13;;;10.17;;
23266;SDS011;11802;53.160;8.214;2023-11-19T04:23:55;28.23;;;10.27;;
23266;SDS011;11802;53.160;8.214;2023-11-19T04:26:21;32.40;;;13.03;;
23266;SDS011;11802;53.160;8.214;2023-11-19T04:28:46;32.30;;;11.00;;
23266;SDS011;11802;53.160;8.214;2023-11-19T04:31:14;37.43;;;12.00;;
23266;SDS011;11802;53.160;8.214;2023-11-19T04:33:41;32.63;;;10.80;;
23266;SDS011;11802;53.160;8.214;2023-11-19T04:36:07;32.23;;;10.93;;
23266;SDS011;11802;53.160;8.214;2023-11-19T04:38:33;27.17;;;10.43;;
23266;SDS011;11802;53.160;8.214;2023-11-19T04:40:59;28.00;;;8.53;;
23266;SDS011;11802;53.160;8.214;2023-11-19T04:43:25;31.77;;;10.73;;
23266;SDS011;11802;53.160;8.214;2023-11-19T04:45:52;35.83;;;10.03;;
23266;SDS011;11802;53.160;8.214;2023-11-19T04:48:17;30.60;;;9.53;;
23266;SDS011;11802;53.160;8.214;2023-11-19T04:50:43;24.30;;;8.77;;
23266;SDS011;11802;53.160;8.214;2023-11-19T04:53:08;27.50;;;8.47;;
23266;SDS011;11802;53.160;8.214;2023-11-19T04:55:34;24.87;;;7.63;;
23266;SDS011;11802;53.160;8.214;2023-11-19T04:57:59;23.77;;;7.40;;
23266;SDS011;11802;53.160;8.214;2023-11-19T05:00:25;21.80;;;7.43;;
23266;SDS011;11802;53.160;8.214;2023-11-19T05:02:50;34.57;;;8.67;;
23266;SDS011;11802;53.160;8.214;2023-11-19T05:05:16;24.60;;;8.37;;
23266;SDS011;11802;53.160;8.214;2023-11-19T05:07:42;25.43;;;7.70;;
23266;SDS011;11802;53.160;8.214;2023-11-19T05:10:08;32.60;;;8.60;;
23266;SDS011;11802;53.160;8.214;2023-11-19T05:12:33;28.40;;;8.33;;
23266;SDS011;11802;53.160;8.214;2023-11-19T05:14:59;36.83;;;8.03;;
23266;SDS011;11802;53.160;8.214;2023-11-19T05:17:25;28.90;;;6.70;;
23266;SDS011;11802;53.160;8.214;2023-11-19T05:19:51;23.33;;;6.77;;
23266;SDS011;11802;53.160;8.214;2023-11-19T05:22:16;28.97;;;6.87;;
23266;SDS011;11802;53.160;8.214;2023-11-19T05:24:42;29.07;;;6.13;;
23266;SDS011;11802;53.160;8.214;2023-11-19T05:27:08;29.33;;;6.47;;
23266;SDS011;11802;53.160;8.214;2023-11-19T05:29:36;27.87;;;6.70;;
23266;SDS011;11802;53.160;8.214;2023-11-19T05:32:04;24.13;;;5.50;;
23266;SDS011;11802;53.160;8.214;2023-11-19T05:34:30;35.27;;;6.60;;
23266;SDS011;11802;53.160;8.214;2023-11-19T05:36:55;27.90;;;6.13;;
23266;SDS011;11802;53.160;8.214;2023-11-19T05:39:22;28.23;;;6.20;;
23266;SDS011;11802;53.160;8.214;2023-11-19T05:41:47;22.47;;;5.50;;
23266;SDS011;11802;53.160;8.214;2023-11-19T05:44:13;29.80;;;5.87;;
23266;SDS011;11802;53.160;8.214;2023-11-19T05:46:38;24.57;;;5.30;;
23266;SDS011;11802;53.160;8.214;2023-11-19T05:49:07;22.97;;;4.60;;
23266;SDS011;11802;53.160;8.214;2023-11-19T05:51:36;27.30;;;5.50;;
23266;SDS011;11802;53.160;8.214;2023-11-19T05:54:06;33.57;;;5.43;;
23266;SDS011;11802;53.160;8.214;2023-11-19T05:56:33;24.63;;;6.00;;
23266;SDS011;11802;53.160;8.214;2023-11-19T05:58:59;29.57;;;6.63;;
23266;SDS011;11802;53.160;8.214;2023-11-19T06:01:31;27.47;;;5.13;;
23266;SDS011;11802;53.160;8.214;2023-11-19T06:03:58;28.47;;;5.30;;
23266;SDS011;11802;53.160;8.214;2023-11-19T06:06:25;25.37;;;5.57;;
23266;SDS011;11802;53.160;8.214;2023-11-19T06:08:51;32.63;;;5.57;;
23266;SDS011;11802;53.160;8.214;2023-11-19T06:11:17;27.50;;;5.50;;
23266;SDS011;11802;53.160;8.214;2023-11-19T06:13:46;28.17;;;5.27;;
23266;SDS011;11802;53.160;8.214;2023-11-19T06:16:16;28.37;;;5.13;;
23266;SDS011;11802;53.160;8.214;2023-11-19T06:18:41;26.47;;;5.63;;
23266;SDS011;11802;53.160;8.214;2023-11-19T06:21:08;31.43;;;5.47;;
23266;SDS011;11802;53.160;8.214;2023-11-19T06:23:34;29.50;;;4.90;;
23266;SDS011;11802;53.160;8.214;2023-11-19T06:26:00;25.10;;;4.53;;
23266;SDS011;11802;53.160;8.214;2023-11-19T06:28:25;27.60;;;5.20;;
23266;SDS011;11802;53.160;8.214;2023-11-19T06:30:51;34.13;;;5.77;;
23266;SDS011;11802;53.160;8.214;2023-11-19T06:33:16;28.67;;;5.47;;
23266;SDS011;11802;53.160;8.214;2023-11-19T06:35:42;26.40;;;5.27;;
23266;SDS011;11802;53.160;8.214;2023-11-19T06:38:07;28.37;;;5.03;;
23266;SDS011;11802;53.160;8.214;2023-11-19T06:40:33;23.87;;;5.20;;
23266;SDS011;11802;53.160;8.214;2023-11-19T06:43:02;34.40;;;4.77;;
23266;SDS011;11802;53.160;8.214;2023-11-19T06:45:29;28.73;;;6.00;;
23266;SDS011;11802;53.160;8.214;2023-11-19T06:47:54;26.07;;;5.70;;
23266;SDS011;11802;53.160;8.214;2023-11-19T06:50:20;33.63;;;5.20;;
23266;SDS011;11802;53.160;8.214;2023-11-19T06:52:46;29.47;;;5.57;;
23266;SDS011;11802;53.160;8.214;2023-11-19T06:55:12;27.83;;;5.37;;
23266;SDS011;11802;53.160;8.214;2023-11-19T06:57:38;27.50;;;5.07;;
23266;SDS011;11802;53.160;8.214;2023-11-19T07:00:03;27.00;;;5.20;;
23266;SDS011;11802;53.160;8.214;2023-11-19T07:02:30;29.37;;;5.73;;
23266;SDS011;11802;53.160;8.214;2023-11-19T07:04:56;35.93;;;6.07;;
23266;SDS011;11802;53.160;8.214;2023-11-19T07:07:23;30.93;;;5.57;;
23266;SDS011;11802;53.160;8.214;2023-11-19T07:09:48;32.67;;;5.17;;
23266;SDS011;11802;53.160;8.214;2023-11-19T07:12:14;27.57;;;5.00;;
23266;SDS011;11802;53.160;8.214;2023-11-19T07:14:40;35.87;;;5.27;;
23266;SDS011;11802;53.160;8.214;2023-11-19T07:17:06;21.87;;;5.60;;
23266;SDS011;11802;53.160;8.214;2023-11-19T07:19:33;22.90;;;4.70;;
23266;SDS011;11802;53.160;8.214;2023-11-19T07:22:01;27.90;;;5.80;;
23266;SDS011;11802;53.160;8.214;2023-11-19T07:24:28;24.67;;;4.67;;
23266;SDS011;11802;53.160;8.214;2023-11-19T07:26:54;27.20;;;4.57;;
23266;SDS011;11802;53.160;8.214;2023-11-19T07:29:19;36.27;;;6.07;;
23266;SDS011;11802;53.160;8.214;2023-11-19T07:31:47;38.40;;;5.20;;
23266;SDS011;11802;53.160;8.214;2023-11-19T07:34:14;26.57;;;4.70;;
23266;SDS011;11802;53.160;8.214;2023-11-19T07:36:39;30.20;;;4.83;;
23266;SDS011;11802;53.160;8.214;2023-11-19T07:39:05;33.87;;;5.43;;
23266;SDS011;11802;53.160;8.214;2023-11-19T07:41:31;26.60;;;4.70;;
23266;SDS011;11802;53.160;8.214;2023-11-19T07:43:57;25.70;;;5.13;;
23266;SDS011;11802;53.160;8.214;2023-11-19T07:46:22;35.30;;;5.57;;
23266;SDS011;11802;53.160;8.214;2023-11-19T07:48:48;33.10;;;5.20;;
23266;SDS011;11802;53.160;8.214;2023-11-19T07:51:15;32.77;;;5.73;;
23266;SDS011;11802;53.160;8.214;2023-11-19T07:53:41;24.40;;;4.87;;
23266;SDS011;11802;53.160;8.214;2023-11-19T07:56:07;33.77;;;5.13;;
23266;SDS011;11802;53.160;8.214;2023-11-19T07:58:33;27.63;;;5.33;;
23266;SDS011;11802;53.160;8.214;2023-11-19T08:00:59;32.17;;;5.43;;
23266;SDS011;11802;53.160;8.214;2023-11-19T08:03:25;32.70;;;6.00;;
23266;SDS011;11802;53.160;8.214;2023-11-19T08:05:50;29.20;;;4.90;;
23266;SDS011;11802;53.160;8.214;2023-11-19T08:08:16;32.47;;;5.10;;
23266;SDS011;11802;53.160;8.214;2023-11-19T08:10:42;25.40;;;4.60;;
23266;SDS011;11802;53.160;8.214;2023-11-19T08:13:09;30.00;;;5.13;;
23266;SDS011;11802;53.160;8.214;2023-11-19T08:15:35;26.53;;;4.83;;
23266;SDS011;11802;53.160;8.214;2023-11-19T08:18:01;32.03;;;4.70;;
23266;SDS011;11802;53.160;8.214;2023-11-19T08:20:27;30.50;;;4.90;;
23266;SDS011;11802;53.160;8.214;2023-11-19T08:22:52;29.13;;;5.03;;
23266;SDS011;11802;53.160;8.214;2023-11-19T08:25:18;25.97;;;4.83;;
23266;SDS011;11802;53.160;8.214;2023-11-19T08:27:43;29.83;;;4.90;;
23266;SDS011;11802;53.160;8.214;2023-11-19T08:30:09;25.07;;;4.43;;
23266;SDS011;11802;53.160;8.214;2023-11-19T08:32:35;27.97;;;5.13;;
23266;SDS011;11802;53.160;8.214;2023-11-19T08:35:01;23.77;;;4.97;;
23266;SDS011;11802;53.160;8.214;2023-11-19T08:37:26;30.00;;;4.77;;
23266;SDS011;11802;53.160;8.214;2023-11-19T08:39:52;28.57;;;5.00;;
23266;SDS011;11802;53.160;8.214;2023-11-19T08:42:18;27.93;;;5.27;;
23266;SDS011;11802;53.160;8.214;2023-11-19T08:44:43;28.07;;;4.70;;
23266;SDS011;11802;53.160;8.214;2023-11-19T08:47:15;22.90;;;4.10;;
23266;SDS011;11802;53.160;8.214;2023-11-19T08:49:42;27.27;;;5.00;;
23266;SDS011;11802;53.160;8.214;2023-11-19T08:52:08;28.10;;;5.17;;
23266;SDS011;11802;53.160;8.214;2023-11-19T08:54:35;26.17;;;4.87;;
23266;SDS011;11802;53.160;8.214;2023-11-19T08:57:01;34.87;;;5.33;;
23266;SDS011;11802;53.160;8.214;2023-11-19T08:59:28;29.53;;;4.83;;
23266;SDS011;11802;53.160;8.214;2023-11-19T09:01:54;27.23;;;5.67;;
23266;SDS011;11802;53.160;8.214;2023-11-19T09:04:19;27.70;;;4.87;;
23266;SDS011;11802;53.160;8.214;2023-11-19T09:06:47;31.20;;;5.13;;
23266;SDS011;11802;53.160;8.214;2023-11-19T09:09:13;34.20;;;5.23;;
23266;SDS011;11802;53.160;8.214;2023-11-19T09:11:39;26.60;;;5.03;;
23266;SDS011;11802;53.160;8.214;2023-11-19T09:14:04;28.57;;;5.13;;
23266;SDS011;11802;53.160;8.214;2023-11-19T09:16:30;24.37;;;4.13;;
23266;SDS011;11802;53.160;8.214;2023-11-19T09:18:55;28.40;;;4.90;;
23266;SDS011;11802;53.160;8.214;2023-11-19T09:21:22;42.23;;;5.97;;
23266;SDS011;11802;53.160;8.214;2023-11-19T09:23:48;35.60;;;6.13;;
23266;SDS011;11802;53.160;8.214;2023-11-19T09:26:14;31.47;;;5.03;;
23266;SDS011;11802;53.160;8.214;2023-11-19T09:28:39;27.90;;;4.63;;
23266;SDS011;11802;53.160;8.214;2023-11-19T09:31:14;33.13;;;6.13;;
23266;SDS011;11802;53.160;8.214;2023-11-19T09:33:43;23.70;;;4.83;;
23266;SDS011;11802;53.160;8.214;2023-11-19T09:36:10;29.07;;;5.20;;
23266;SDS011;11802;53.160;8.214;2023-11-19T09:38:38;31.80;;;5.20;;
23266;SDS011;11802;53.160;8.214;2023-11-19T09:41:05;28.87;;;4.83;;
23266;SDS011;11802;53.160;8.214;2023-11-19T09:43:34;35.67;;;5.57;;
23266;SDS011;11802;53.160;8.214;2023-11-19T09:46:03;28.73;;;5.27;;
23266;SDS011;11802;53.160;8.214;2023-11-19T09:48:34;29.77;;;6.53;;
23266;SDS011;11802;53.160;8.214;2023-11-19T09:51:02;30.30;;;5.73;;
23266;SDS011;11802;53.160;8.214;2023-11-19T09:53:27;26.30;;;4.67;;
23266;SDS011;11802;53.160;8.214;2023-11-19T09:55:53;29.50;;;4.93;;
23266;SDS011;11802;53.160;8.214;2023-11-19T09:58:20;30.17;;;5.33;;
23266;SDS011;11802;53.160;8.214;2023-11-19T10:00:45;28.33;;;4.90;;
23266;SDS011;11802;53.160;8.214;2023-11-19T10:03:12;27.80;;;5.40;;
23266;SDS011;11802;53.160;8.214;2023-11-19T10:05:38;24.37;;;4.73;;
23266;SDS011;11802;53.160;8.214;2023-11-19T10:08:05;31.30;;;5.40;;
23266;SDS011;11802;53.160;8.214;2023-11-19T10:10:31;34.67;;;5.67;;
23266;SDS011;11802;53.160;8.214;2023-11-19T10:12:57;34.57;;;6.60;;
23266;SDS011;11802;53.160;8.214;2023-11-19T10:15:23;28.47;;;5.50;;
23266;SDS011;11802;53.160;8.214;2023-11-19T10:17:51;22.63;;;6.27;;
23266;SDS011;11802;53.160;8.214;2023-11-19T10:20:19;42.17;;;7.60;;
23266;SDS011;11802;53.160;8.214;2023-11-19T10:22:45;29.23;;;5.53;;
23266;SDS011;11802;53.160;8.214;2023-11-19T10:25:26;30.10;;;7.53;;
23266;SDS011;11802;53.160;8.214;2023-11-19T10:27:53;35.83;;;6.00;;
23266;SDS011;11802;53.160;8.214;2023-11-19T10:30:27;31.07;;;5.77;;
23266;SDS011;11802;53.160;8.214;2023-11-19T10:35:35;30.20;;;5.90;;
23266;SDS011;11802;53.160;8.214;2023-11-19T10:38:21;22.70;;;4.30;;
23266;SDS011;11802;53.160;8.214;2023-11-19T10:40:48;31.07;;;5.30;;
23266;SDS011;11802;53.160;8.214;2023-11-19T10:43:15;31.80;;;5.30;;
23266;SDS011;11802;53.160;8.214;2023-11-19T10:45:42;37.10;;;6.00;;
23266;SDS011;11802;53.160;8.214;2023-11-19T10:48:08;29.87;;;5.70;;
23266;SDS011;11802;53.160;8.214;2023-11-19T10:50:34;36.83;;;6.20;;
23266;SDS011;11802;53.160;8.214;2023-11-19T10:53:04;28.60;;;5.27;;
23266;SDS011;11802;53.160;8.214;2023-11-19T10:55:31;25.27;;;4.47;;
23266;SDS011;11802;53.160;8.214;2023-11-19T10:58:03;28.03;;;4.77;;
23266;SDS011;11802;53.160;8.214;2023-11-19T11:00:30;28.87;;;4.93;;
23266;SDS011;11802;53.160;8.214;2023-11-19T11:03:18;29.97;;;5.20;;
23266;SDS011;11802;53.160;8.214;2023-11-19T11:05:49;33.60;;;5.70;;
23266;SDS011;11802;53.160;8.214;2023-11-19T11:08:16;28.90;;;5.30;;
23266;SDS011;11802;53.160;8.214;2023-11-19T11:10:44;30.50;;;5.47;;
23266;SDS011;11802;53.160;8.214;2023-11-19T11:13:11;26.87;;;5.30;;
23266;SDS011;11802;53.160;8.214;2023-11-19T11:15:38;27.47;;;5.40;;
23266;SDS011;11802;53.160;8.214;2023-11-19T11:18:07;32.77;;;5.13;;
23266;SDS011;11802;53.160;8.214;2023-11-19T11:20:34;26.60;;;4.97;;
23266;SDS011;11802;53.160;8.214;2023-11-19T11:23:07;28.00;;;5.40;;
23266;SDS011;11802;53.160;8.214;2023-11-19T11:28:43;27.87;;;5.43;;
23266;SDS011;11802;53.160;8.214;2023-11-19T11:31:36;31.53;;;5.20;;
23266;SDS011;11802;53.160;8.214;2023-11-19T11:35:15;27.30;;;4.83;;
23266;SDS011;11802;53.160;8.214;2023-11-19T11:37:37;28.87;;;5.50;;
23266;SDS011;11802;53.160;8.214;2023-11-19T11:40:16;24.10;;;4.87;;
23266;SDS011;11802;53.160;8.214;2023-11-19T11:42:43;31.53;;;5.63;;
23266;SDS011;11802;53.160;8.214;2023-11-19T11:45:13;22.13;;;4.53;;
23266;SDS011;11802;53.160;8.214;2023-11-19T11:50:11;29.23;;;4.93;;
23266;SDS011;11802;53.160;8.214;2023-11-19T11:53:12;24.90;;;4.77;;
23266;SDS011;11802;53.160;8.214;2023-11-19T11:58:17;29.37;;;5.47;;
23266;SDS011;11802;53.160;8.214;2023-11-19T12:00:46;25.00;;;4.97;;
23266;SDS011;11802;53.160;8.214;2023-11-19T12:03:13;28.37;;;5.07;;
23266;SDS011;11802;53.160;8.214;2023-11-19T12:05:40;32.13;;;5.13;;
23266;SDS011;11802;53.160;8.214;2023-11-19T12:08:07;28.33;;;4.27;;
23266;SDS011;11802;53.160;8.214;2023-11-19T12:10:37;28.37;;;5.60;;
23266;SDS011;11802;53.160;8.214;2023-11-19T12:13:10;27.43;;;5.13;;
23266;SDS011;11802;53.160;8.214;2023-11-19T12:16:06;18.77;;;4.43;;
23266;SDS011;11802;53.160;8.214;2023-11-19T12:18:28;22.07;;;4.13;;
23266;SDS011;11802;53.160;8.214;2023-11-19T12:20:55;16.70;;;3.50;;
23266;SDS011;11802;53.160;8.214;2023-11-19T12:23:21;29.03;;;4.87;;
23266;SDS011;11802;53.160;8.214;2023-11-19T12:25:47;19.17;;;5.03;;
23266;SDS011;11802;53.160;8.214;2023-11-19T12:28:14;25.93;;;4.03;;
23266;SDS011;11802;53.160;8.214;2023-11-19T12:30:42;18.90;;;4.47;;
23266;SDS011;11802;53.160;8.214;2023-11-19T12:33:09;22.03;;;3.97;;
23266;SDS011;11802;53.160;8.214;2023-11-19T12:35:39;15.57;;;3.47;;
23266;SDS011;11802;53.160;8.214;2023-11-19T12:38:21;13.70;;;3.17;;
23266;SDS011;11802;53.160;8.214;2023-11-19T12:41:04;19.17;;;3.40;;
23266;SDS011;11802;53.160;8.214;2023-11-19T12:43:30;23.57;;;3.30;;
23266;SDS011;11802;53.160;8.214;2023-11-19T12:45:56;19.47;;;3.60;;
23266;SDS011;11802;53.160;8.214;2023-11-19T12:48:22;10.50;;;2.57;;
23266;SDS011;11802;53.160;8.214;2023-11-19T12:50:55;14.07;;;2.77;;
23266;SDS011;11802;53.160;8.214;2023-11-19T12:53:25;10.70;;;2.20;;
23266;SDS011;11802;53.160;8.214;2023-11-19T12:55:51;14.60;;;2.67;;
23266;SDS011;11802;53.160;8.214;2023-11-19T12:58:33;15.97;;;2.73;;
23266;SDS011;11802;53.160;8.214;2023-11-19T13:01:01;10.37;;;2.50;;
23266;SDS011;11802;53.160;8.214;2023-11-19T13:03:31;12.00;;;2.63;;
23266;SDS011;11802;53.160;8.214;2023-11-19T13:06:06;11.27;;;2.50;;
23266;SDS011;11802;53.160;8.214;2023-11-19T13:08:46;12.90;;;2.10;;
23266;SDS011;11802;53.160;8.214;2023-11-19T13:11:32;10.30;;;1.90;;
23266;SDS011;11802;53.160;8.214;2023-11-19T13:14:03;12.43;;;2.83;;
23266;SDS011;11802;53.160;8.214;2023-11-19T13:16:29;11.37;;;2.23;;
23266;SDS011;11802;53.160;8.214;2023-11-19T13:18:55;13.23;;;2.73;;
23266;SDS011;11802;53.160;8.214;2023-11-19T13:21:22;12.10;;;3.13;;
23266;SDS011;11802;53.160;8.214;2023-11-19T13:23:48;8.47;;;2.50;;
23266;SDS011;11802;53.160;8.214;2023-11-19T13:26:13;15.77;;;3.07;;
23266;SDS011;11802;53.160;8.214;2023-11-19T13:28:39;14.80;;;2.70;;
23266;SDS011;11802;53.160;8.214;2023-11-19T13:31:05;16.80;;;2.97;;
23266;SDS011;11802;53.160;8.214;2023-11-19T13:33:30;13.97;;;2.50;;
23266;SDS011;11802;53.160;8.214;2023-11-19T13:35:58;10.77;;;2.80;;
23266;SDS011;11802;53.160;8.214;2023-11-19T13:38:24;17.10;;;3.20;;
23266;SDS011;11802;53.160;8.214;2023-11-19T13:40:50;20.27;;;3.10;;
23266;SDS011;11802;53.160;8.214;2023-11-19T13:43:16;13.17;;;2.93;;
23266;SDS011;11802;53.160;8.214;2023-11-19T13:45:42;17.90;;;3.57;;
23266;SDS011;11802;53.160;8.214;2023-11-19T13:48:07;21.43;;;3.93;;
23266;SDS011;11802;53.160;8.214;2023-11-19T13:50:34;24.67;;;3.73;;
23266;SDS011;11802;53.160;8.214;2023-11-19T13:52:59;22.50;;;3.77;;
23266;SDS011;11802;53.160;8.214;2023-11-19T13:55:25;24.03;;;3.83;;
23266;SDS011;11802;53.160;8.214;2023-11-19T13:57:51;17.53;;;3.50;;
23266;SDS011;11802;53.160;8.214;2023-11-19T14:00:16;22.37;;;4.17;;
23266;SDS011;11802;53.160;8.214;2023-11-19T14:02:43;19.57;;;4.20;;
23266;SDS011;11802;53.160;8.214;2023-11-19T14:05:11;21.83;;;4.47;;
23266;SDS011;11802;53.160;8.214;2023-11-19T14:07:40;26.33;;;4.33;;
23266;SDS011;11802;53.160;8.214;2023-11-19T14:10:06;21.03;;;4.10;;
23266;SDS011;11802;53.160;8.214;2023-11-19T14:12:34;19.07;;;4.07;;
23266;SDS011;11802;53.160;8.214;2023-11-19T14:15:01;19.83;;;4.27;;
23266;SDS011;11802;53.160;8.214;2023-11-19T14:17:26;20.83;;;3.73;;
23266;SDS011;11802;53.160;8.214;2023-11-19T14:19:52;17.23;;;3.27;;
23266;SDS011;11802;53.160;8.214;2023-11-19T14:22:17;18.63;;;3.90;;
23266;SDS011;11802;53.160;8.214;2023-11-19T14:24:43;21.97;;;4.10;;
23266;SDS011;11802;53.160;8.214;2023-11-19T14:27:09;16.23;;;3.17;;
23266;SDS011;11802;53.160;8.214;2023-11-19T14:29:35;15.97;;;3.00;;
23266;SDS011;11802;53.160;8.214;2023-11-19T14:32:01;16.63;;;3.13;;
23266;SDS011;11802;53.160;8.214;2023-11-19T14:34:27;18.57;;;3.10;;
23266;SDS011;11802;53.160;8.214;2023-11-19T14:36:57;13.43;;;2.53;;
23266;SDS011;11802;53.160;8.214;2023-11-19T14:39:24;14.97;;;2.87;;
23266;SDS011;11802;53.160;8.214;2023-11-19T14:41:50;16.37;;;2.80;;
23266;SDS011;11802;53.160;8.214;2023-11-19T14:44:16;21.23;;;3.50;;